createdAt,value
2019-05-05T00:01:55.519Z,0.63
2019-05-05T00:05:15.490Z,0.40
2019-05-05T00:08:10.036Z,0.83
2019-05-05T00:11:15.356Z,0.50
2019-05-05T00:14:15.193Z,0.87
2019-05-05T00:17:19.120Z,0.60
2019-05-05T00:20:14.581Z,0.60
2019-05-05T00:23:08.792Z,0.60
2019-05-05T00:26:04.243Z,0.70
2019-05-05T00:29:04.441Z,0.70
2019-05-05T00:31:58.525Z,0.60
2019-05-05T00:34:59.686Z,0.57
2019-05-05T00:37:54.409Z,0.70
2019-05-05T00:40:56.364Z,0.70
2019-05-05T00:43:55.376Z,0.70
2019-05-05T00:47:05.174Z,0.63
2019-05-05T00:50:00.243Z,0.60
2019-05-05T00:52:55.094Z,0.77
2019-05-05T00:55:49.495Z,0.80
2019-05-05T00:58:52.274Z,0.67
2019-05-05T01:02:04.643Z,0.67
2019-05-05T01:05:07.483Z,0.77
2019-05-05T01:08:02.061Z,0.73
2019-05-05T01:11:04.033Z,0.70
2019-05-05T01:13:57.881Z,0.80
2019-05-05T01:20:03.443Z,1.00
2019-05-05T01:22:56.888Z,0.97
2019-05-05T01:26:06.473Z,1.03
2019-05-05T01:29:10.728Z,0.73
2019-05-05T01:32:06.082Z,1.00
2019-05-05T01:35:07.252Z,0.73
2019-05-05T01:38:05.722Z,0.73
2019-05-05T01:41:10.610Z,1.00
2019-05-05T01:44:05.000Z,1.10
2019-05-05T01:47:06.388Z,0.90
2019-05-05T01:50:08.202Z,1.10
2019-05-05T01:53:04.743Z,1.10
2019-05-05T01:55:58.686Z,0.93
2019-05-05T01:58:59.947Z,0.83
2019-05-05T02:01:55.073Z,1.00
2019-05-05T02:04:58.367Z,0.80
2019-05-05T02:07:52.163Z,1.03
2019-05-05T02:10:54.756Z,1.03
2019-05-05T02:13:48.577Z,1.10
2019-05-05T02:16:57.511Z,0.87
2019-05-05T02:19:50.984Z,1.03
2019-05-05T02:22:51.972Z,1.10
2019-05-05T02:25:46.393Z,1.00
2019-05-05T02:28:48.357Z,0.93
2019-05-05T02:32:00.879Z,0.87
2019-05-05T02:35:09.809Z,1.00
2019-05-05T02:38:06.597Z,1.13
2019-05-05T02:41:07.678Z,1.27
2019-05-05T02:43:55.863Z,1.17
2019-05-05T02:47:04.885Z,1.13
2019-05-05T02:49:58.787Z,1.10
2019-05-05T02:53:04.042Z,1.00
2019-05-05T02:55:59.142Z,1.00
2019-05-05T02:59:00.758Z,1.00
2019-05-05T03:02:11.455Z,1.10
2019-05-05T03:05:14.278Z,1.00
2019-05-05T03:08:08.185Z,1.03
2019-05-05T03:11:09.675Z,1.17
2019-05-05T03:14:04.054Z,1.27
2019-05-05T03:17:05.371Z,1.10
2019-05-05T03:19:59.759Z,1.00
2019-05-05T03:23:01.699Z,1.20
2019-05-05T03:25:48.691Z,1.20
2019-05-05T03:28:46.602Z,1.00
2019-05-05T03:31:40.692Z,1.23
2019-05-05T03:34:44.525Z,1.10
2019-05-05T03:37:36.817Z,0.97
2019-05-05T03:40:38.810Z,0.90
2019-05-05T03:43:27.659Z,1.23
2019-05-05T03:46:28.113Z,1.17
2019-05-05T03:49:36.546Z,1.10
2019-05-05T03:52:37.858Z,1.17
2019-05-05T03:55:25.003Z,1.00
2019-05-05T03:58:19.359Z,1.00
2019-05-05T04:01:11.202Z,1.10
2019-05-05T04:04:33.598Z,0.87
2019-05-05T04:07:21.278Z,1.10
2019-05-05T04:10:15.459Z,1.40
2019-05-05T04:13:09.355Z,1.23
2019-05-05T04:16:27.447Z,1.30
2019-05-05T04:19:29.865Z,1.07
2019-05-05T04:22:23.982Z,1.00
2019-05-05T04:25:17.855Z,1.17
2019-05-05T04:28:18.304Z,1.37
2019-05-05T04:31:13.584Z,1.00
2019-05-05T04:34:13.687Z,1.20
2019-05-05T04:37:00.812Z,1.00
2019-05-05T04:40:04.999Z,1.20
2019-05-05T04:42:58.590Z,0.90
2019-05-05T04:45:59.528Z,1.10
2019-05-05T04:48:54.482Z,1.20
2019-05-05T04:52:04.107Z,1.20
2019-05-05T04:54:58.463Z,1.20
2019-05-05T04:57:59.791Z,1.10
2019-05-05T05:00:54.718Z,1.20
2019-05-05T05:03:55.666Z,1.03
2019-05-05T05:07:04.640Z,1.00
2019-05-05T05:10:05.125Z,1.33
2019-05-05T05:12:58.880Z,1.00
2019-05-05T05:15:59.331Z,1.27
2019-05-05T05:18:53.777Z,1.33
2019-05-05T05:22:01.312Z,1.57
2019-05-05T05:24:51.090Z,1.40
2019-05-05T05:27:53.492Z,1.30
2019-05-05T05:30:46.727Z,1.23
2019-05-05T05:33:47.746Z,1.23
2019-05-05T05:36:41.463Z,1.20
2019-05-05T05:39:50.034Z,0.97
2019-05-05T05:42:44.001Z,1.20
2019-05-05T05:45:49.191Z,1.33
2019-05-05T05:48:47.649Z,1.13
2019-05-05T05:51:51.420Z,1.23
2019-05-05T05:54:45.168Z,0.83
2019-05-05T05:57:48.877Z,1.17
2019-05-05T06:00:44.276Z,1.00
2019-05-05T06:03:46.964Z,1.40
2019-05-05T06:06:34.661Z,1.33
2019-05-05T06:09:28.966Z,1.20
2019-05-05T06:12:24.558Z,1.20
2019-05-05T06:15:26.645Z,1.10
2019-05-05T06:18:20.649Z,1.30
2019-05-05T06:21:14.938Z,1.20
2019-05-05T06:24:08.512Z,1.00
2019-05-05T06:27:03.583Z,1.27
2019-05-05T06:29:57.358Z,1.23
2019-05-05T06:33:09.874Z,1.13
2019-05-05T06:36:03.876Z,1.10
2019-05-05T06:39:04.586Z,1.20
2019-05-05T06:42:01.530Z,1.37
2019-05-05T06:45:06.414Z,1.10
2019-05-05T06:48:16.020Z,1.10
2019-05-05T06:51:16.987Z,1.30
2019-05-05T06:54:10.506Z,1.40
2019-05-05T06:57:06.445Z,1.07
2019-05-05T07:00:07.067Z,1.43
2019-05-05T07:03:01.594Z,1.20
2019-05-05T07:06:04.059Z,1.03
2019-05-05T07:08:57.942Z,1.10
2019-05-05T07:11:54.400Z,1.43
2019-05-05T07:14:54.363Z,1.40
2019-05-05T07:17:47.848Z,1.10
2019-05-05T07:20:44.041Z,1.10
2019-05-05T07:23:37.666Z,1.13
2019-05-05T07:26:39.408Z,1.30
2019-05-05T07:29:34.243Z,1.20
2019-05-05T07:32:35.958Z,1.20
2019-05-05T07:35:56.634Z,1.10
2019-05-05T07:38:54.705Z,1.20
2019-05-05T07:41:49.281Z,1.20
2019-05-05T07:44:50.631Z,1.37
2019-05-05T07:47:47.193Z,1.10
2019-05-05T07:50:58.142Z,1.30
2019-05-05T07:53:44.039Z,1.50
2019-05-05T07:56:44.636Z,1.60
2019-05-05T07:59:38.749Z,1.20
2019-05-05T08:02:40.223Z,1.20
2019-05-05T08:05:34.352Z,1.60
2019-05-05T08:08:35.749Z,1.23
2019-05-05T08:11:23.906Z,1.10
2019-05-05T08:14:19.590Z,1.50
2019-05-05T08:17:33.993Z,1.30
2019-05-05T08:20:51.258Z,1.20
2019-05-05T08:23:46.992Z,1.20
2019-05-05T08:26:54.500Z,1.23
2019-05-05T08:30:05.275Z,1.20
2019-05-05T08:33:06.664Z,1.20
2019-05-05T08:36:00.654Z,1.43
2019-05-05T08:39:03.738Z,1.30
2019-05-05T08:41:57.632Z,1.33
2019-05-05T08:44:58.771Z,1.07
2019-05-05T08:47:54.168Z,1.20
2019-05-05T08:50:55.792Z,1.10
2019-05-05T08:53:50.133Z,1.30
2019-05-05T08:56:54.973Z,1.50
2019-05-05T08:59:49.501Z,1.30
2019-05-05T09:02:54.163Z,1.53
2019-05-05T09:05:45.720Z,1.33
2019-05-05T09:08:46.667Z,1.40
2019-05-05T09:11:40.852Z,1.40
2019-05-05T09:14:42.102Z,1.67
2019-05-05T09:17:35.591Z,1.40
2019-05-05T09:20:38.029Z,1.20
2019-05-05T09:23:31.121Z,1.50
2019-05-05T09:26:34.439Z,1.43
2019-05-05T09:29:43.972Z,1.30
2019-05-05T09:32:38.340Z,1.30
2019-05-05T09:35:47.506Z,1.23
2019-05-05T09:38:49.355Z,1.50
2019-05-05T09:41:44.613Z,1.40
2019-05-05T09:44:46.139Z,1.30
2019-05-05T09:47:40.365Z,1.33
2019-05-05T09:50:46.453Z,1.20
2019-05-05T09:53:46.899Z,1.47
2019-05-05T09:56:47.383Z,1.57
2019-05-05T09:59:54.780Z,1.53
2019-05-05T10:02:56.490Z,1.27
2019-05-05T10:05:53.668Z,1.67
2019-05-05T10:08:54.675Z,1.40
2019-05-05T10:11:49.717Z,1.20
2019-05-05T10:14:51.273Z,1.47
2019-05-05T10:17:45.734Z,1.60
2019-05-05T10:20:47.949Z,1.67
2019-05-05T10:23:43.645Z,1.33
2019-05-05T10:29:40.727Z,1.50
2019-05-05T10:32:43.866Z,1.43
2019-05-05T10:35:48.160Z,1.30
2019-05-05T10:38:50.985Z,1.30
2019-05-05T10:41:44.691Z,1.60
2019-05-05T10:44:45.883Z,1.50
2019-05-05T10:47:41.291Z,1.20
2019-05-05T10:50:44.255Z,1.30
2019-05-05T10:53:38.272Z,1.60
2019-05-05T10:56:39.595Z,1.37
2019-05-05T10:59:35.580Z,1.70
2019-05-05T11:02:37.691Z,1.60
2019-05-05T11:05:33.867Z,1.50
2019-05-05T11:08:35.086Z,1.50
2019-05-05T11:11:29.209Z,1.50
2019-05-05T11:14:33.793Z,1.50
2019-05-05T11:17:27.633Z,1.63
2019-05-05T11:20:29.091Z,1.30
2019-05-05T11:23:24.966Z,1.40
2019-05-05T11:26:25.703Z,1.40
2019-05-05T11:29:19.339Z,1.70
2019-05-05T11:32:21.833Z,1.67
2019-05-05T11:35:20.255Z,1.50
2019-05-05T11:38:21.647Z,1.70
2019-05-05T11:41:15.755Z,1.60
2019-05-05T11:44:16.663Z,1.30
2019-05-05T11:47:10.849Z,1.30
2019-05-05T11:50:14.993Z,1.40
2019-05-05T11:53:09.267Z,1.60
2019-05-05T11:56:10.585Z,1.40
2019-05-05T11:59:17.723Z,1.30
2019-05-05T12:02:19.043Z,1.20
2019-05-05T12:05:14.091Z,1.50
2019-05-05T12:08:16.394Z,1.30
2019-05-05T12:11:10.177Z,1.50
2019-05-05T12:14:15.047Z,1.63
2019-05-05T12:17:09.685Z,1.40
2019-05-05T12:20:13.515Z,1.30
2019-05-05T12:23:10.097Z,1.60
2019-05-05T12:26:18.336Z,1.40
2019-05-05T12:29:14.091Z,1.50
2019-05-05T12:32:15.961Z,1.63
2019-05-05T12:35:11.933Z,1.30
2019-05-05T12:38:13.511Z,1.50
2019-05-05T12:41:08.137Z,1.60
2019-05-05T12:44:11.028Z,1.50
2019-05-05T12:47:15.641Z,1.27
2019-05-05T12:50:18.801Z,1.47
2019-05-05T12:53:14.524Z,1.50
2019-05-05T12:56:16.470Z,1.50
2019-05-05T12:59:11.622Z,1.40
2019-05-05T13:02:14.290Z,1.60
2019-05-05T13:05:07.823Z,1.30
2019-05-05T13:08:14.354Z,1.27
2019-05-05T13:11:07.938Z,1.50
2019-05-05T13:14:08.663Z,1.30
2019-05-05T13:17:03.624Z,1.20
2019-05-05T13:20:08.541Z,1.43
2019-05-05T13:23:14.567Z,1.60
2019-05-05T13:26:25.930Z,1.30
2019-05-05T13:29:20.248Z,1.50
2019-05-05T13:32:21.531Z,1.50
2019-05-05T13:35:18.116Z,1.40
2019-05-05T13:38:18.935Z,1.40
2019-05-05T13:41:12.622Z,1.63
2019-05-05T13:44:14.916Z,1.63
2019-05-05T13:47:09.954Z,1.20
2019-05-05T13:50:14.246Z,1.47
2019-05-05T13:53:07.928Z,1.10
2019-05-05T13:56:12.138Z,1.53
2019-05-05T13:59:05.714Z,1.30
2019-05-05T14:02:10.276Z,1.30
2019-05-05T14:05:15.317Z,1.33
2019-05-05T14:08:09.122Z,1.90
2019-05-05T14:11:03.716Z,1.20
2019-05-05T14:14:04.555Z,1.47
2019-05-05T14:17:17.224Z,1.40
2019-05-05T14:20:17.825Z,1.30
2019-05-05T14:23:12.331Z,1.33
2019-05-05T14:26:24.714Z,1.37
2019-05-05T14:29:11.158Z,1.20
2019-05-05T14:32:13.500Z,1.40
2019-05-05T14:35:14.258Z,1.40
2019-05-05T14:38:20.080Z,1.30
2019-05-05T14:41:13.647Z,1.27
2019-05-05T14:44:15.291Z,1.13
2019-05-05T14:47:09.021Z,1.40
2019-05-05T14:50:10.550Z,1.47
2019-05-05T14:53:04.353Z,1.60
2019-05-05T14:56:06.185Z,1.50
2019-05-05T14:58:59.719Z,1.30
2019-05-05T15:02:00.409Z,1.10
2019-05-05T15:04:56.827Z,1.53
2019-05-05T15:08:01.849Z,1.50
2019-05-05T15:11:06.081Z,1.50
2019-05-05T15:14:07.796Z,1.57
2019-05-05T15:17:03.597Z,1.33
2019-05-05T15:20:05.172Z,1.27
2019-05-05T15:22:58.892Z,1.30
2019-05-05T15:25:59.762Z,1.53
2019-05-05T15:29:01.309Z,1.50
2019-05-05T15:31:56.271Z,1.43
2019-05-05T15:34:54.344Z,1.60
2019-05-05T15:37:54.683Z,1.10
2019-05-05T15:40:48.217Z,1.20
2019-05-05T15:43:49.668Z,1.67
2019-05-05T15:46:44.403Z,1.23
2019-05-05T15:49:46.308Z,1.37
2019-05-05T15:52:40.628Z,1.40
2019-05-05T15:55:41.993Z,1.60
2019-05-05T15:58:36.044Z,1.70
2019-05-05T16:01:36.722Z,1.30
2019-05-05T16:04:31.215Z,1.50
2019-05-05T16:07:33.376Z,1.30
2019-05-05T16:10:34.756Z,1.43
2019-05-05T16:13:29.681Z,1.23
2019-05-05T16:16:25.259Z,1.30
2019-05-05T16:19:28.083Z,1.40
2019-05-05T16:22:43.788Z,1.30
2019-05-05T16:25:46.644Z,1.20
2019-05-05T16:28:41.614Z,1.30
2019-05-05T16:31:43.287Z,1.27
2019-05-05T16:34:37.668Z,1.30
2019-05-05T16:37:39.016Z,1.40
2019-05-05T16:40:33.874Z,1.37
2019-05-05T16:43:34.989Z,1.10
2019-05-05T16:46:29.557Z,1.50
2019-05-05T16:49:30.910Z,1.40
2019-05-05T16:52:27.139Z,1.20
2019-05-05T16:55:29.001Z,1.47
2019-05-05T16:58:24.067Z,1.23
2019-05-05T17:01:25.541Z,1.20
2019-05-05T17:04:27.646Z,1.13
2019-05-05T17:07:23.828Z,1.50
2019-05-05T17:10:13.696Z,1.20
2019-05-05T17:13:16.505Z,1.20
2019-05-05T17:16:13.430Z,1.50
2019-05-05T17:19:15.837Z,1.33
2019-05-05T17:22:16.721Z,1.50
2019-05-05T17:25:21.827Z,1.43
2019-05-05T17:28:15.865Z,1.40
2019-05-05T17:31:16.909Z,1.30
2019-05-05T17:34:11.267Z,1.30
2019-05-05T17:37:04.924Z,1.20
2019-05-05T17:40:00.126Z,1.33
2019-05-05T17:43:24.989Z,1.37
2019-05-05T17:46:18.000Z,1.37
2019-05-05T17:49:32.737Z,1.40
2019-05-05T17:52:54.140Z,1.43
2019-05-05T17:55:55.308Z,1.30
2019-05-05T17:58:49.322Z,1.17
2019-05-05T18:01:51.058Z,1.20
2019-05-05T18:04:47.159Z,1.40
2019-05-05T18:07:48.278Z,1.30
2019-05-05T18:10:45.267Z,1.27
2019-05-05T18:13:46.427Z,1.30
2019-05-05T18:16:39.895Z,1.37
2019-05-05T18:19:43.482Z,1.20
2019-05-05T18:22:36.522Z,1.53
2019-05-05T18:25:37.359Z,1.10
2019-05-05T18:28:31.299Z,1.47
2019-05-05T18:31:33.634Z,1.40
2019-05-05T18:34:28.140Z,1.40
2019-05-05T18:37:29.497Z,1.50
2019-05-05T18:40:25.115Z,1.40
2019-05-05T18:43:27.363Z,1.30
2019-05-05T18:46:21.734Z,1.23
2019-05-05T18:49:23.527Z,1.20
2019-05-05T18:52:17.377Z,1.30
2019-05-05T18:55:12.382Z,1.50
2019-05-05T18:58:07.869Z,1.10
2019-05-05T19:01:28.322Z,1.50
2019-05-05T19:04:26.934Z,1.20
2019-05-05T19:07:53.036Z,1.27
2019-05-05T19:10:37.506Z,1.30
2019-05-05T19:13:38.929Z,1.17
2019-05-05T19:16:39.505Z,1.20
2019-05-05T19:19:34.516Z,1.50
2019-05-05T19:22:28.937Z,1.20
2019-05-05T19:25:28.778Z,1.40
2019-05-05T19:28:23.566Z,1.60
2019-05-05T19:31:24.092Z,1.23
2019-05-05T19:34:24.937Z,1.40
2019-05-05T19:37:18.781Z,1.20
2019-05-05T19:40:14.247Z,1.10
2019-05-05T19:43:14.571Z,1.43
2019-05-05T19:46:10.097Z,1.40
2019-05-05T19:49:17.818Z,1.47
2019-05-05T19:52:13.593Z,1.40
2019-05-05T19:55:14.830Z,1.20
2019-05-05T19:58:08.897Z,1.30
2019-05-05T20:01:04.818Z,1.30
2019-05-05T20:03:59.527Z,1.50
2019-05-05T20:06:54.770Z,1.43
2019-05-05T20:09:49.165Z,1.67
2019-05-05T20:12:54.029Z,1.37
2019-05-05T20:15:55.446Z,1.40
2019-05-05T20:18:57.002Z,1.43
2019-05-05T20:21:50.432Z,1.20
2019-05-05T20:24:44.753Z,1.50
2019-05-05T20:27:34.225Z,1.70
2019-05-05T20:30:34.747Z,1.50
2019-05-05T20:33:39.071Z,1.80
2019-05-05T20:36:40.980Z,1.60
2019-05-05T20:39:34.561Z,1.40
2019-05-05T20:42:38.885Z,1.30
2019-05-05T20:45:34.739Z,1.20
2019-05-05T20:48:35.805Z,1.60
2019-05-05T20:51:30.103Z,1.20
2019-05-05T20:54:33.242Z,1.20
2019-05-05T20:57:20.670Z,1.33
2019-05-05T21:00:16.348Z,1.57
2019-05-05T21:03:11.096Z,1.30
2019-05-05T21:06:13.907Z,1.23
2019-05-05T21:09:09.007Z,1.20
2019-05-05T21:12:09.981Z,1.50
2019-05-05T21:15:04.873Z,1.40
2019-05-05T21:18:06.802Z,1.40
2019-05-05T21:21:24.801Z,1.20
2019-05-05T21:24:19.252Z,1.53
2019-05-05T21:27:13.855Z,1.30
2019-05-05T21:30:14.579Z,1.43
2019-05-05T21:33:23.741Z,1.50
2019-05-05T21:36:24.553Z,1.60
2019-05-05T21:39:18.222Z,1.50
2019-05-05T21:42:20.609Z,1.27
2019-05-05T21:45:15.468Z,1.40
2019-05-05T21:48:16.049Z,1.40
2019-05-05T21:51:14.233Z,1.50
2019-05-05T21:54:34.274Z,1.60
2019-05-05T21:57:48.330Z,1.30
2019-05-05T22:00:56.836Z,1.20
2019-05-05T22:03:50.683Z,1.50
2019-05-05T22:06:51.600Z,1.00
2019-05-05T22:09:46.018Z,1.40
2019-05-05T22:12:47.119Z,1.50
2019-05-05T22:15:40.814Z,1.70
2019-05-05T22:18:44.738Z,1.57
2019-05-05T22:21:54.573Z,1.43
2019-05-05T22:24:55.666Z,1.70
2019-05-05T22:27:49.260Z,1.40
2019-05-05T22:30:50.287Z,1.53
2019-05-05T22:33:44.763Z,1.50
2019-05-05T22:36:46.874Z,1.60
2019-05-05T22:39:40.348Z,1.43
2019-05-05T22:42:43.690Z,1.47
2019-05-05T22:45:37.354Z,1.70
2019-05-05T22:48:38.550Z,1.67
2019-05-05T22:51:33.811Z,1.50
2019-05-05T22:54:35.625Z,1.37
2019-05-05T22:57:29.190Z,1.50
2019-05-05T23:00:40.826Z,1.43
2019-05-05T23:03:48.613Z,1.50
2019-05-05T23:06:50.962Z,1.33
2019-05-05T23:09:45.355Z,1.40
2019-05-05T23:12:45.829Z,1.47
2019-05-05T23:15:44.008Z,1.27
2019-05-05T23:18:45.329Z,1.63
2019-05-05T23:21:46.664Z,1.50
2019-05-05T23:24:49.646Z,1.50
2019-05-05T23:27:57.948Z,1.47
2019-05-05T23:30:59.318Z,1.40
2019-05-05T23:33:54.828Z,1.70
2019-05-05T23:36:56.643Z,1.50
2019-05-05T23:39:50.483Z,1.40
2019-05-05T23:42:54.054Z,1.30
2019-05-05T23:45:47.325Z,1.40
2019-05-05T23:48:48.108Z,1.33
2019-05-05T23:51:44.130Z,1.40
2019-05-05T23:54:45.134Z,1.43
2019-05-05T23:57:39.875Z,1.30
